Time;durP1;ratioP1;P1;durP2;ratioP2;P2;SDS_P1;SDS_P2;PMS_P1;PMS_P2;Temp;Humidity;BMP_temperature;BMP_pressure;BME280_temperature;BME280_humidity;BME280_pressure;Samples;Min_cycle;Max_cycle;Signal;HPM_P1;HPM_P2
2022/01/09 00:00:20;;;;;;;31.08;17.55;;;4.10;99.90;;;;;;4962110;28;20140;-87
2022/01/09 00:02:45;;;;;;;31.75;16.33;;;4.10;99.90;;;;;;4962289;28;20062;-88
2022/01/09 00:05:11;;;;;;;30.75;16.38;;;4.10;99.90;;;;;;4978278;28;20480;-87
2022/01/09 00:07:38;;;;;;;35.83;17.35;;;4.50;99.90;;;;;;4978367;28;20141;-88
2022/01/09 00:10:05;;;;;;;27.33;15.43;;;4.30;99.90;;;;;;4977838;28;20432;-89
2022/01/09 00:12:31;;;;;;;26.60;15.77;;;4.10;99.90;;;;;;4978052;28;20249;-88
2022/01/09 00:14:57;;;;;;;27.50;15.80;;;4.10;99.90;;;;;;4977769;28;20440;-88
2022/01/09 00:17:23;;;;;;;34.30;17.23;;;4.10;99.90;;;;;;4961869;28;20104;-88
2022/01/09 00:19:48;;;;;;;42.45;19.13;;;4.60;99.90;;;;;;4961893;28;20482;-88
2022/01/09 00:22:17;;;;;;;40.28;18.42;;;4.10;99.90;;;;;;4978177;28;20407;-88
2022/01/09 00:24:43;;;;;;;31.77;16.92;;;4.10;99.90;;;;;;4977276;28;20050;-88
2022/01/09 00:27:08;;;;;;;41.70;18.65;;;4.10;99.90;;;;;;4978018;28;20565;-88
2022/01/09 00:29:34;;;;;;;33.97;16.85;;;4.10;99.90;;;;;;4977550;28;20491;-89
2022/01/09 00:31:59;;;;;;;30.52;16.23;;;4.10;99.90;;;;;;4977686;28;20050;-89
2022/01/09 00:34:25;;;;;;;25.65;14.27;;;4.10;99.90;;;;;;4977603;28;20507;-87
2022/01/09 00:36:51;;;;;;;30.13;15.70;;;4.10;99.90;;;;;;4977377;28;20058;-88
2022/01/09 00:39:16;;;;;;;31.67;16.20;;;4.10;99.90;;;;;;4977547;28;20500;-88
2022/01/09 00:41:45;;;;;;;36.75;16.83;;;4.20;99.90;;;;;;4961490;28;20061;-88
2022/01/09 00:44:10;;;;;;;31.05;15.18;;;4.10;99.90;;;;;;4961390;28;20058;-87
2022/01/09 00:46:36;;;;;;;46.70;18.38;;;4.30;99.90;;;;;;4960685;28;20061;-88
2022/01/09 00:49:03;;;;;;;35.00;17.10;;;4.20;99.90;;;;;;4977444;28;20061;-88
2022/01/09 00:51:29;;;;;;;34.85;17.05;;;4.10;99.90;;;;;;4977495;28;20098;-88
2022/01/09 00:53:54;;;;;;;36.78;18.48;;;4.20;99.90;;;;;;4961243;28;20140;-88
2022/01/09 00:56:20;;;;;;;29.63;15.88;;;4.20;99.90;;;;;;4977298;28;20500;-88
2022/01/09 00:58:45;;;;;;;25.58;13.95;;;4.10;99.90;;;;;;4977195;28;20050;-89
2022/01/09 01:01:11;;;;;;;37.92;17.63;;;4.20;99.90;;;;;;4976920;28;20403;-89
2022/01/09 01:03:37;;;;;;;39.13;17.83;;;4.10;99.90;;;;;;4961520;28;20062;-89
2022/01/09 01:06:02;;;;;;;54.70;20.88;;;4.20;99.90;;;;;;4961003;28;20105;-88
2022/01/09 01:08:28;;;;;;;28.48;15.93;;;4.20;99.90;;;;;;4977092;28;20053;-88
2022/01/09 01:10:53;;;;;;;35.35;17.48;;;4.20;99.90;;;;;;4976813;28;20411;-88
2022/01/09 01:13:19;;;;;;;32.78;17.08;;;4.20;99.90;;;;;;4977174;28;20050;-88
2022/01/09 01:15:45;;;;;;;34.97;16.48;;;4.20;99.90;;;;;;4976637;28;20061;-87
2022/01/09 01:18:11;;;;;;;41.42;18.40;;;4.20;99.90;;;;;;4976680;28;20054;-87
2022/01/09 01:20:36;;;;;;;47.20;19.40;;;4.20;99.90;;;;;;4976849;28;20064;-88
2022/01/09 01:23:02;;;;;;;39.50;19.15;;;4.20;99.90;;;;;;4960475;28;20100;-88
2022/01/09 01:25:28;;;;;;;44.90;18.55;;;4.20;99.90;;;;;;4976849;28;20104;-87
2022/01/09 01:27:54;;;;;;;34.08;16.60;;;4.20;99.90;;;;;;4976626;28;20054;-87
2022/01/09 01:30:20;;;;;;;42.45;18.70;;;4.30;99.90;;;;;;4976614;28;20054;-88
2022/01/09 01:32:46;;;;;;;32.53;15.15;;;4.20;99.90;;;;;;4976284;28;20455;-88
2022/01/09 01:35:13;;;;;;;30.73;14.95;;;4.20;99.90;;;;;;4976698;28;20058;-86
2022/01/09 01:37:41;;;;;;;31.92;15.23;;;4.70;99.90;;;;;;4976240;28;20051;-88
2022/01/09 01:40:16;;;;;;;39.03;16.60;;;4.30;99.90;;;;;;4976444;28;20050;-87
2022/01/09 01:42:42;;;;;;;47.05;17.75;;;4.30;99.90;;;;;;4976496;28;20047;-87
2022/01/09 01:45:09;;;;;;;36.72;17.05;;;4.30;99.90;;;;;;4959817;28;20050;-87
2022/01/09 01:47:35;;;;;;;34.35;16.58;;;4.30;99.90;;;;;;4976257;28;20149;-90
2022/01/09 01:50:02;;;;;;;32.75;15.82;;;4.70;99.90;;;;;;4976507;28;20050;-88
2022/01/09 01:52:34;;;;;;;36.83;16.55;;;4.60;99.90;;;;;;4976411;28;20065;-87
2022/01/09 01:54:59;;;;;;;36.83;16.42;;;4.30;99.90;;;;;;4976167;28;20054;-88
2022/01/09 01:57:26;;;;;;;44.95;17.95;;;4.30;99.90;;;;;;4960018;28;20051;-88
2022/01/09 01:59:54;;;;;;;35.63;15.70;;;4.30;99.90;;;;;;4975953;28;20054;-88
2022/01/09 02:02:20;;;;;;;43.10;17.90;;;4.40;99.90;;;;;;4976256;28;20093;-87
2022/01/09 02:04:46;;;;;;;86.25;19.95;;;4.40;99.90;;;;;;4976052;28;20109;-88
2022/01/09 02:07:12;;;;;;;52.50;17.42;;;4.40;99.90;;;;;;4976501;28;20447;-88
2022/01/09 02:09:37;;;;;;;72.95;19.60;;;4.40;99.90;;;;;;4976151;28;20480;-88
2022/01/09 02:12:04;;;;;;;83.13;20.67;;;4.40;99.90;;;;;;4976080;28;20058;-88
2022/01/09 02:14:34;;;;;;;55.13;17.17;;;4.40;99.90;;;;;;4993027;28;20475;-87
2022/01/09 02:16:59;;;;;;;42.40;16.15;;;4.60;99.90;;;;;;4975617;28;20050;-88
2022/01/09 02:19:27;;;;;;;29.02;13.25;;;4.40;99.90;;;;;;4976013;28;20517;-88
2022/01/09 02:21:54;;;;;;;58.00;18.05;;;4.40;99.90;;;;;;4959819;28;20158;-88
2022/01/09 02:24:23;;;;;;;42.85;16.92;;;4.40;99.90;;;;;;4976012;28;20050;-87
2022/01/09 02:26:49;;;;;;;33.25;15.73;;;4.40;99.90;;;;;;4976031;28;20137;-88
2022/01/09 02:29:14;;;;;;;33.08;15.15;;;4.50;99.90;;;;;;4975698;28;20132;-88
2022/01/09 02:31:40;;;;;;;38.47;15.93;;;4.50;99.90;;;;;;4975734;28;20054;-88
2022/01/09 02:34:06;;;;;;;47.05;15.93;;;4.50;99.90;;;;;;4959360;28;20058;-87
2022/01/09 02:36:31;;;;;;;47.70;16.05;;;4.50;99.90;;;;;;4975741;28;20104;-88
2022/01/09 02:38:57;;;;;;;58.58;16.25;;;4.50;99.90;;;;;;4975775;28;20507;-88
2022/01/09 02:41:23;;;;;;;45.10;14.95;;;4.50;99.90;;;;;;4975879;28;20046;-88
2022/01/09 02:43:48;;;;;;;44.90;14.27;;;4.50;99.90;;;;;;4975818;28;20124;-88
2022/01/09 02:46:39;;;;;;;47.40;14.63;;;4.50;99.90;;;;;;4975446;28;20128;-88
2022/01/09 02:49:05;;;;;;;29.38;11.45;;;4.60;99.90;;;;;;4979064;28;20058;-89
2022/01/09 02:51:31;;;;;;;27.17;10.65;;;4.60;99.90;;;;;;4979451;28;20085;-88
2022/01/09 02:55:05;;;;;;;33.22;11.82;;;4.60;99.90;;;;;;4963204;28;20058;-89
2022/01/09 02:56:43;;;;;;;47.38;11.85;;;4.60;99.90;;;;;;4979189;28;20046;-88
2022/01/09 02:59:08;;;;;;;38.83;11.40;;;4.70;99.90;;;;;;4979519;28;20058;-89
2022/01/09 03:01:34;;;;;;;43.88;12.63;;;4.80;99.90;;;;;;4979603;28;20479;-88
2022/01/09 03:03:59;;;;;;;49.17;12.50;;;4.80;99.90;;;;;;4962965;28;20065;-89
2022/01/09 03:06:25;;;;;;;36.40;11.57;;;4.80;99.90;;;;;;4978937;28;20109;-88
2022/01/09 03:08:51;;;;;;;33.45;11.13;;;4.80;99.90;;;;;;4979326;28;20106;-88
2022/01/09 03:11:16;;;;;;;36.00;10.40;;;4.80;99.90;;;;;;4979133;28;20053;-89
2022/01/09 03:13:42;;;;;;;21.35;8.85;;;4.90;99.90;;;;;;4979286;28;20496;-90
2022/01/09 03:16:07;;;;;;;33.33;8.45;;;4.90;99.90;;;;;;4979310;28;20455;-89
2022/01/09 03:18:33;;;;;;;32.33;7.82;;;4.90;99.90;;;;;;4979347;28;20046;-92
2022/01/09 03:20:59;;;;;;;28.98;5.32;;;5.00;99.90;;;;;;4963490;28;20117;-92
2022/01/09 03:23:24;;;;;;;45.08;4.68;;;5.10;99.90;;;;;;4979286;28;20101;-89
2022/01/09 03:25:50;;;;;;;36.20;4.05;;;5.20;99.90;;;;;;4963331;28;20105;-92
2022/01/09 03:28:16;;;;;;;47.03;4.93;;;5.30;99.90;;;;;;4963174;28;20057;-91
2022/01/09 03:30:41;;;;;;;50.80;5.05;;;5.40;99.90;;;;;;4979729;28;20065;-90
2022/01/09 03:33:07;;;;;;;38.25;3.97;;;5.50;99.90;;;;;;4979383;28;20523;-91
2022/01/09 03:35:33;;;;;;;41.53;4.18;;;5.80;99.90;;;;;;4978993;28;20084;-89
2022/01/09 03:37:58;;;;;;;45.65;4.30;;;5.50;99.90;;;;;;4962912;28;20049;-91
2022/01/09 03:40:26;;;;;;;42.35;5.05;;;5.50;99.90;;;;;;4979179;28;20042;-92
2022/01/09 03:42:53;;;;;;;41.10;5.38;;;5.50;99.90;;;;;;4978795;28;20054;-90
2022/01/09 03:45:19;;;;;;;50.47;5.75;;;5.80;99.90;;;;;;4979193;28;20473;-92
2022/01/09 03:47:45;;;;;;;47.53;5.38;;;5.50;99.90;;;;;;4963433;28;20066;-89
2022/01/09 03:50:13;;;;;;;41.17;4.07;;;5.50;99.90;;;;;;4979020;28;20105;-92
2022/01/09 03:52:39;;;;;;;53.13;5.30;;;5.60;99.90;;;;;;4979141;28;20401;-91
2022/01/09 03:55:07;;;;;;;50.83;4.47;;;5.50;99.90;;;;;;4962719;28;20137;-90
2022/01/09 03:57:33;;;;;;;60.83;5.85;;;5.50;99.90;;;;;;4962337;28;20500;-92
2022/01/09 03:59:59;;;;;;;59.08;5.65;;;5.50;99.90;;;;;;4961574;28;20066;-90
2022/01/09 04:02:25;;;;;;;64.95;5.78;;;5.50;99.90;;;;;;4978597;28;20415;-92
2022/01/09 04:04:50;;;;;;;52.90;5.15;;;5.50;99.90;;;;;;4962583;28;20061;-88
2022/01/09 04:07:17;;;;;;;50.10;5.32;;;5.40;99.90;;;;;;4978776;28;20060;-91
2022/01/09 04:09:45;;;;;;;44.75;4.38;;;5.50;99.90;;;;;;4962527;28;20058;-90
2022/01/09 04:12:18;;;;;;;53.20;4.78;;;5.50;99.90;;;;;;4978535;28;20058;-91
2022/01/09 04:14:45;;;;;;;49.67;4.68;;;5.50;99.90;;;;;;4962733;28;20058;-91
2022/01/09 04:17:19;;;;;;;57.60;4.53;;;5.50;99.90;;;;;;4962352;28;20423;-88
2022/01/09 04:19:45;;;;;;;49.42;3.75;;;5.50;99.90;;;;;;4978715;28;20533;-89
2022/01/09 04:22:11;;;;;;;36.28;3.63;;;5.50;99.90;;;;;;4978413;28;20141;-90
2022/01/09 04:24:37;;;;;;;37.28;4.22;;;5.40;99.90;;;;;;4962228;28;20054;-91
2022/01/09 04:27:03;;;;;;;39.92;3.72;;;5.40;99.90;;;;;;4961988;28;20069;-87
2022/01/09 04:29:28;;;;;;;41.55;4.70;;;5.50;99.90;;;;;;4962029;28;20054;-91
2022/01/09 04:31:54;;;;;;;53.92;4.63;;;5.20;99.90;;;;;;4978165;28;20109;-91
2022/01/09 04:34:20;;;;;;;41.67;3.53;;;5.50;99.90;;;;;;4962204;28;20089;-90
2022/01/09 04:36:45;;;;;;;44.95;3.90;;;5.50;99.90;;;;;;4977747;28;20410;-91
2022/01/09 04:39:11;;;;;;;41.00;3.97;;;5.50;99.90;;;;;;4962012;28;20117;-88
2022/01/09 04:41:37;;;;;;;42.83;4.03;;;5.50;99.90;;;;;;4977704;28;20054;-93
2022/01/09 04:44:03;;;;;;;37.83;4.43;;;5.50;99.90;;;;;;4977736;28;20101;-88
2022/01/09 04:46:39;;;;;;;46.47;4.05;;;5.50;99.90;;;;;;4977678;28;20058;-91
2022/01/09 04:49:04;;;;;;;33.72;4.10;;;5.40;99.90;;;;;;4994024;28;20062;-88
2022/01/09 04:51:30;;;;;;;35.42;3.90;;;5.40;99.90;;;;;;4977800;28;20057;-88
2022/01/09 04:53:56;;;;;;;34.40;3.67;;;5.40;99.90;;;;;;4961904;28;20058;-91
2022/01/09 04:56:21;;;;;;;31.17;4.03;;;5.40;99.90;;;;;;4961399;28;20108;-87
2022/01/09 04:58:47;;;;;;;35.95;4.18;;;5.40;99.90;;;;;;4977583;28;20062;-91
2022/01/09 05:01:13;;;;;;;32.72;3.80;;;5.50;99.90;;;;;;4961608;28;20054;-88
2022/01/09 05:03:38;;;;;;;28.17;3.42;;;5.10;99.90;;;;;;4961623;28;20079;-89
2022/01/09 05:06:04;;;;;;;36.15;3.60;;;5.20;99.90;;;;;;4977461;28;20492;-91
2022/01/09 05:08:30;;;;;;;32.30;3.90;;;5.20;99.90;;;;;;4977655;28;20058;-89
2022/01/09 05:10:56;;;;;;;31.02;2.88;;;5.20;99.90;;;;;;4976942;28;20148;-91
2022/01/09 05:13:21;;;;;;;25.27;2.83;;;5.00;99.90;;;;;;4977584;28;20058;-90
2022/01/09 05:15:50;;;;;;;29.40;3.30;;;5.40;99.90;;;;;;4960983;28;20090;-89
2022/01/09 05:18:16;;;;;;;25.17;2.10;;;5.50;99.90;;;;;;4960611;28;20051;-89
2022/01/09 05:20:42;;;;;;;15.32;2.45;;;5.00;99.90;;;;;;4977336;28;20380;-88
2022/01/09 05:23:08;;;;;;;23.08;2.70;;;5.00;99.90;;;;;;4976994;28;20089;-91
2022/01/09 05:25:34;;;;;;;29.10;2.90;;;5.00;99.90;;;;;;4976806;28;20464;-89
2022/01/09 05:28:00;;;;;;;26.17;3.22;;;5.10;99.90;;;;;;4976943;28;20117;-89
2022/01/09 05:30:25;;;;;;;23.60;3.03;;;5.20;99.90;;;;;;4960887;28;20094;-88
2022/01/09 05:32:51;;;;;;;29.10;2.45;;;5.40;99.90;;;;;;4976730;28;20054;-90
2022/01/09 05:35:16;;;;;;;17.73;2.70;;;5.10;99.90;;;;;;4960797;28;20057;-90
2022/01/09 05:37:42;;;;;;;21.98;2.92;;;5.10;99.90;;;;;;4976601;28;20050;-89
2022/01/09 05:40:08;;;;;;;29.40;3.17;;;5.10;99.90;;;;;;4960967;28;20381;-90
2022/01/09 05:42:34;;;;;;;23.30;2.42;;;5.00;99.90;;;;;;4960387;28;20153;-87
2022/01/09 05:45:02;;;;;;;23.55;2.80;;;5.10;99.90;;;;;;4976660;28;20567;-89
2022/01/09 05:47:27;;;;;;;26.30;2.70;;;5.00;99.90;;;;;;4976700;28;20058;-90
2022/01/09 05:49:53;;;;;;;30.63;2.55;;;5.10;99.90;;;;;;4960728;28;20109;-89
2022/01/09 05:52:19;;;;;;;24.45;2.50;;;5.00;99.90;;;;;;4976946;28;20142;-93
2022/01/09 05:54:44;;;;;;;37.65;3.10;;;5.10;99.90;;;;;;4960543;28;20145;-89
2022/01/09 05:57:10;;;;;;;28.65;3.53;;;5.30;99.90;;;;;;4976235;28;20488;-89
2022/01/09 05:59:36;;;;;;;32.50;3.22;;;5.00;99.90;;;;;;4960240;28;20173;-90
2022/01/09 06:02:01;;;;;;;25.20;3.08;;;5.00;99.90;;;;;;4960534;28;20495;-89
2022/01/09 06:04:27;;;;;;;22.58;2.33;;;4.90;99.90;;;;;;4976763;28;20077;-91
2022/01/09 06:06:54;;;;;;;42.85;2.90;;;5.00;99.90;;;;;;4960342;28;20145;-89
2022/01/09 06:09:20;;;;;;;26.00;2.15;;;4.90;99.90;;;;;;4976679;28;20047;-91
2022/01/09 06:11:46;;;;;;;29.83;2.97;;;5.10;99.90;;;;;;4960561;28;20050;-92
2022/01/09 06:14:12;;;;;;;30.42;2.65;;;4.90;99.90;;;;;;4960308;28;20070;-91
2022/01/09 06:16:41;;;;;;;22.85;2.58;;;4.80;99.90;;;;;;4960093;28;20415;-90
2022/01/09 06:19:07;;;;;;;24.45;2.72;;;4.80;99.90;;;;;;4957274;28;20058;-93
2022/01/09 06:21:33;;;;;;;26.02;2.50;;;5.10;99.90;;;;;;4956477;28;20103;-90
2022/01/09 06:23:59;;;;;;;18.08;2.75;;;4.70;99.90;;;;;;4959284;28;20101;-90
2022/01/09 06:26:24;;;;;;;18.05;2.30;;;4.80;99.90;;;;;;4960412;28;20062;-91
2022/01/09 06:28:50;;;;;;;23.63;2.28;;;4.80;99.90;;;;;;4959946;28;20050;-92
2022/01/09 06:31:16;;;;;;;19.33;2.30;;;4.70;99.90;;;;;;4960406;28;20054;-90
2022/01/09 06:33:42;;;;;;;14.13;2.00;;;4.70;99.90;;;;;;4976534;28;20097;-90
2022/01/09 06:36:07;;;;;;;21.73;1.88;;;4.70;99.90;;;;;;4960232;28;20054;-91
2022/01/09 06:38:33;;;;;;;19.42;2.15;;;4.70;99.90;;;;;;4960504;28;20132;-92
2022/01/09 06:40:59;;;;;;;17.27;1.80;;;4.70;99.90;;;;;;4960251;28;20062;-90
2022/01/09 06:43:24;;;;;;;19.67;2.03;;;4.70;99.90;;;;;;4960076;28;20093;-92
2022/01/09 06:45:50;;;;;;;19.88;1.70;;;4.50;99.90;;;;;;4960428;28;20050;-93
2022/01/09 06:48:16;;;;;;;17.17;1.90;;;4.90;99.90;;;;;;4960312;28;20108;-92
2022/01/09 06:50:42;;;;;;;21.50;2.03;;;4.80;99.90;;;;;;4960063;28;20050;-91
2022/01/09 06:53:07;;;;;;;17.92;2.17;;;4.40;99.90;;;;;;4959876;28;20142;-91
2022/01/09 06:55:33;;;;;;;14.73;1.63;;;4.40;99.90;;;;;;4960304;28;20062;-92
2022/01/09 06:57:59;;;;;;;15.35;1.95;;;4.50;99.90;;;;;;4960380;28;20484;-91
2022/01/09 07:00:25;;;;;;;14.40;2.03;;;4.40;99.90;;;;;;4976075;28;20409;-89
2022/01/09 07:02:50;;;;;;;14.65;1.65;;;4.40;99.90;;;;;;4959650;28;20053;-89
2022/01/09 07:05:16;;;;;;;13.63;1.80;;;4.60;99.90;;;;;;4960144;28;20124;-90
2022/01/09 07:07:42;;;;;;;13.60;1.58;;;4.40;99.90;;;;;;4956007;28;20042;-90
2022/01/09 07:10:09;;;;;;;11.25;1.35;;;4.30;99.90;;;;;;4959325;28;20423;-91
2022/01/09 07:12:35;;;;;;;13.45;2.13;;;4.30;99.90;;;;;;4959849;28;20069;-92
2022/01/09 07:15:03;;;;;;;18.40;2.00;;;4.40;99.90;;;;;;4959687;28;20057;-92
2022/01/09 07:17:29;;;;;;;10.75;1.27;;;4.30;99.90;;;;;;4960032;28;20105;-91
2022/01/09 07:19:54;;;;;;;19.85;1.55;;;4.10;99.90;;;;;;4960175;28;20491;-92
2022/01/09 07:22:20;;;;;;;10.80;1.33;;;4.10;99.90;;;;;;4959908;28;20054;-90
2022/01/09 07:24:46;;;;;;;10.48;1.38;;;4.20;99.90;;;;;;4959910;28;20105;-91
2022/01/09 07:27:11;;;;;;;7.05;1.10;;;4.50;99.90;;;;;;4975882;28;20117;-91
2022/01/09 07:29:37;;;;;;;16.73;1.92;;;4.10;99.90;;;;;;4976104;28;20107;-92
2022/01/09 07:32:03;;;;;;;15.73;2.00;;;4.00;99.90;;;;;;4960317;28;20393;-90
2022/01/09 07:34:29;;;;;;;11.90;1.30;;;4.10;99.90;;;;;;4978603;28;20097;-89
2022/01/09 07:36:55;;;;;;;9.88;1.40;;;4.10;99.90;;;;;;4979064;28;20061;-90
2022/01/09 07:39:20;;;;;;;17.10;1.58;;;4.10;99.90;;;;;;4979166;28;20521;-91
2022/01/09 07:41:46;;;;;;;15.60;2.00;;;4.50;99.90;;;;;;4962885;28;20488;-91
2022/01/09 07:44:12;;;;;;;13.65;2.03;;;4.20;99.90;;;;;;4962176;28;20054;-90
2022/01/09 07:46:38;;;;;;;12.93;1.58;;;4.20;99.90;;;;;;4962408;28;20137;-90
2022/01/09 07:49:04;;;;;;;15.63;1.65;;;4.20;99.90;;;;;;4981564;28;20047;-90
2022/01/09 07:51:29;;;;;;;15.35;1.85;;;4.20;99.90;;;;;;4959772;28;20065;-91
2022/01/09 07:53:55;;;;;;;11.00;1.48;;;4.40;99.90;;;;;;4943814;28;20058;-90
2022/01/09 07:56:20;;;;;;;12.10;1.65;;;4.10;99.90;;;;;;4959589;28;20051;-91
2022/01/09 07:58:46;;;;;;;13.82;1.80;;;4.60;99.90;;;;;;4943937;28;20050;-89
2022/01/09 08:01:12;;;;;;;12.82;1.70;;;4.10;99.90;;;;;;4959698;28;20393;-90
2022/01/09 08:03:37;;;;;;;16.50;1.52;;;4.10;99.90;;;;;;4959794;28;20392;-92
2022/01/09 08:06:03;;;;;;;14.05;1.48;;;4.30;99.90;;;;;;4943957;28;20086;-90
2022/01/09 08:08:29;;;;;;;9.65;1.55;;;4.30;99.90;;;;;;4943437;28;20066;-91
2022/01/09 08:10:55;;;;;;;10.07;1.48;;;4.30;99.90;;;;;;4943139;28;20055;-91
2022/01/09 08:13:21;;;;;;;10.85;1.20;;;4.50;99.90;;;;;;4959096;28;20046;-93
2022/01/09 08:15:47;;;;;;;9.25;1.17;;;4.30;99.90;;;;;;4959603;28;20046;-90
2022/01/09 08:18:13;;;;;;;12.23;1.10;;;4.40;99.90;;;;;;4942945;28;20114;-90
2022/01/09 08:20:42;;;;;;;11.23;1.38;;;4.30;99.90;;;;;;4959574;28;20058;-91
2022/01/09 08:23:07;;;;;;;6.90;1.20;;;4.30;99.90;;;;;;4959854;28;20125;-91
2022/01/09 08:25:33;;;;;;;12.93;1.90;;;4.70;99.90;;;;;;4943182;28;20050;-91
2022/01/09 08:27:59;;;;;;;12.48;2.20;;;4.30;99.90;;;;;;4958612;28;20055;-90
2022/01/09 08:30:25;;;;;;;17.60;1.70;;;4.40;99.90;;;;;;4942733;28;20066;-90
2022/01/09 08:32:54;;;;;;;11.68;1.35;;;4.30;99.90;;;;;;4975058;28;20117;-90
2022/01/09 08:35:21;;;;;;;16.35;1.80;;;4.30;99.90;;;;;;4942713;28;20141;-91
2022/01/09 08:37:48;;;;;;;14.02;1.52;;;4.30;99.90;;;;;;4942838;28;20504;-90
2022/01/09 08:40:19;;;;;;;15.90;1.65;;;4.80;99.90;;;;;;4942888;28;20054;-91
2022/01/09 08:42:46;;;;;;;15.18;1.85;;;4.40;99.90;;;;;;4958733;28;20054;-90
2022/01/09 08:45:13;;;;;;;20.17;2.03;;;4.30;99.90;;;;;;4941512;28;20090;-91
2022/01/09 08:47:39;;;;;;;13.73;2.10;;;4.40;99.90;;;;;;4958865;28;20075;-90
2022/01/09 08:50:06;;;;;;;13.40;1.65;;;4.30;99.90;;;;;;4958870;28;20567;-91
2022/01/09 08:52:32;;;;;;;10.93;1.60;;;4.30;99.90;;;;;;4942728;28;20113;-91
2022/01/09 08:54:58;;;;;;;13.55;1.75;;;4.20;99.90;;;;;;4942608;28;20101;-91
2022/01/09 08:57:25;;;;;;;11.65;1.85;;;4.30;99.90;;;;;;4957941;28;20086;-90
2022/01/09 08:59:52;;;;;;;16.83;1.70;;;4.30;99.90;;;;;;4958219;28;20133;-91
2022/01/09 09:02:19;;;;;;;15.07;1.83;;;4.40;99.90;;;;;;4958358;28;20093;-91
2022/01/09 09:04:45;;;;;;;24.02;1.60;;;4.30;99.90;;;;;;4958384;28;20054;-92
2022/01/09 09:07:11;;;;;;;13.57;1.98;;;4.30;99.90;;;;;;4958610;28;20055;-90
2022/01/09 09:09:37;;;;;;;15.65;1.92;;;4.30;99.90;;;;;;4942654;28;20069;-91
2022/01/09 09:12:04;;;;;;;22.80;2.42;;;4.40;99.90;;;;;;4942551;28;20405;-91
2022/01/09 09:14:30;;;;;;;13.63;1.95;;;4.40;99.90;;;;;;4942119;28;20513;-91
2022/01/09 09:16:56;;;;;;;18.17;2.17;;;4.40;99.90;;;;;;4941914;28;20050;-91
2022/01/09 09:19:21;;;;;;;12.43;1.80;;;4.40;99.90;;;;;;4958178;28;20381;-90
2022/01/09 09:21:47;;;;;;;12.05;1.98;;;4.50;99.90;;;;;;4942315;28;20074;-92
2022/01/09 09:24:13;;;;;;;15.63;2.03;;;4.70;99.90;;;;;;4942145;28;20054;-92
2022/01/09 09:26:39;;;;;;;22.92;2.22;;;4.70;99.90;;;;;;4958124;28;20061;-90
2022/01/09 09:29:08;;;;;;;20.92;2.22;;;4.50;99.90;;;;;;4958230;28;20508;-91
2022/01/09 09:31:34;;;;;;;19.05;2.17;;;4.60;99.90;;;;;;4941873;28;20063;-91
2022/01/09 09:34:00;;;;;;;15.90;2.63;;;4.70;99.90;;;;;;4942029;28;20117;-91
2022/01/09 09:36:27;;;;;;;13.45;2.22;;;4.60;99.90;;;;;;4941688;28;20051;-91
2022/01/09 09:38:52;;;;;;;14.00;1.80;;;4.60;99.90;;;;;;4958033;28;20404;-91
2022/01/09 09:41:25;;;;;;;18.00;1.60;;;4.90;99.90;;;;;;4942310;28;20058;-91
2022/01/09 09:43:51;;;;;;;11.77;1.80;;;4.70;99.90;;;;;;4941901;28;20086;-91
2022/01/09 09:46:19;;;;;;;17.17;2.13;;;4.80;99.90;;;;;;4938264;29;20134;-91
2022/01/09 09:48:45;;;;;;;15.48;2.15;;;4.80;99.90;;;;;;4953152;28;20408;-92
2022/01/09 09:51:11;;;;;;;17.33;2.38;;;4.90;99.90;;;;;;4942223;28;20054;-92
2022/01/09 09:53:37;;;;;;;21.63;3.85;;;5.10;99.90;;;;;;4941902;28;20051;-91
2022/01/09 09:56:02;;;;;;;29.65;2.58;;;4.90;99.90;;;;;;4941455;28;20062;-91
2022/01/09 09:58:28;;;;;;;27.50;3.15;;;5.00;99.90;;;;;;4956643;28;20051;-93
2022/01/09 10:00:55;;;;;;;19.48;2.40;;;5.20;99.90;;;;;;4941760;28;20054;-89
2022/01/09 10:03:29;;;;;;;19.90;2.42;;;5.10;99.90;;;;;;4969497;28;20050;-92
2022/01/09 10:05:55;;;;;;;25.02;3.00;;;5.20;99.90;;;;;;4939954;28;20059;-90
2022/01/09 10:08:21;;;;;;;16.27;2.67;;;5.30;99.90;;;;;;4956959;28;20066;-90
2022/01/09 10:10:47;;;;;;;16.70;2.90;;;5.40;99.90;;;;;;4941568;28;20051;-90
2022/01/09 10:13:17;;;;;;;26.15;2.65;;;5.50;99.90;;;;;;4957132;28;20488;-90
2022/01/09 10:15:48;;;;;;;25.85;2.72;;;5.70;99.90;;;;;;4956844;28;20559;-90
2022/01/09 10:18:34;;;;;;;24.20;3.15;;;5.80;99.90;;;;;;4956644;28;20078;-91
2022/01/09 10:21:09;;;;;;;24.40;3.10;;;6.00;99.90;;;;;;4940262;28;20142;-90
2022/01/09 10:23:34;;;;;;;21.38;3.00;;;6.10;99.90;;;;;;4940892;28;20065;-91
2022/01/09 10:26:11;;;;;;;21.17;2.47;;;6.30;99.90;;;;;;4956765;28;20453;-90
2022/01/09 10:28:38;;;;;;;21.35;2.60;;;6.40;99.90;;;;;;4956986;28;20063;-89
2022/01/09 10:31:15;;;;;;;17.85;2.67;;;6.40;99.90;;;;;;4940915;28;20054;-90
2022/01/09 10:33:41;;;;;;;20.17;2.65;;;6.30;99.90;;;;;;4957084;28;20408;-90
2022/01/09 10:36:07;;;;;;;17.80;2.40;;;6.30;99.90;;;;;;4941191;28;20137;-89
2022/01/09 10:38:33;;;;;;;19.92;2.97;;;6.20;99.90;;;;;;4940090;28;20138;-91
2022/01/09 10:41:03;;;;;;;19.70;2.58;;;6.20;99.90;;;;;;4956928;28;20165;-91
2022/01/09 10:43:36;;;;;;;13.90;1.90;;;6.40;99.90;;;;;;4956942;28;20106;-89
2022/01/09 10:46:02;;;;;;;13.63;1.85;;;7.00;99.90;;;;;;4946971;28;20066;-91
2022/01/09 10:48:41;;;;;;;16.85;2.72;;;6.70;99.90;;;;;;4976141;28;20054;-91
2022/01/09 10:51:12;;;;;;;17.30;2.10;;;7.10;99.90;;;;;;4975828;28;20055;-89
2022/01/09 10:53:40;;;;;;;21.30;2.22;;;6.70;99.90;;;;;;4976059;28;20069;-91
2022/01/09 10:56:15;;;;;;;15.98;2.17;;;6.90;99.90;;;;;;4976198;28;20511;-90
2022/01/09 10:58:53;;;;;;;23.10;2.65;;;6.40;99.90;;;;;;4960108;28;20043;-91
2022/01/09 11:01:23;;;;;;;27.13;3.00;;;6.40;99.90;;;;;;4992039;28;20050;-89
2022/01/09 11:03:53;;;;;;;23.63;2.78;;;6.30;99.90;;;;;;4974967;28;20050;-89
2022/01/09 11:06:20;;;;;;;18.45;3.00;;;6.20;99.90;;;;;;4992253;28;20050;-92
2022/01/09 11:08:47;;;;;;;16.73;2.40;;;6.30;99.90;;;;;;4993849;28;20058;-90
2022/01/09 11:11:35;;;;;;;19.95;3.08;;;6.60;99.90;;;;;;4963695;28;20050;-91
2022/01/09 11:14:03;;;;;;;16.85;2.30;;;6.70;99.90;;;;;;4979757;28;20058;-90
2022/01/09 11:16:34;;;;;;;20.52;2.40;;;7.00;99.90;;;;;;4963000;28;20054;-92
2022/01/09 11:19:23;;;;;;;15.75;2.15;;;7.40;99.90;;;;;;4963021;28;20082;-90
2022/01/09 11:22:01;;;;;;;13.15;1.85;;;7.80;99.90;;;;;;4963637;28;20054;-91
2022/01/09 11:25:02;;;;;;;11.48;2.53;;;8.40;99.90;;;;;;4995719;28;20448;-89
2022/01/09 11:27:55;;;;;;;14.13;2.13;;;8.60;99.90;;;;;;4963407;28;20141;-90
2022/01/09 11:30:55;;;;;;;10.95;1.70;;;8.70;99.90;;;;;;4995426;28;20054;-90
2022/01/09 11:33:39;;;;;;;13.20;2.50;;;8.40;99.90;;;;;;4995173;28;20145;-90
2022/01/09 11:36:39;;;;;;;16.85;2.30;;;8.10;99.90;;;;;;4995339;28;20062;-90
2022/01/09 11:39:23;;;;;;;13.52;1.85;;;7.70;99.90;;;;;;4995084;28;20093;-90
2022/01/09 11:42:10;;;;;;;18.65;2.20;;;7.40;99.90;;;;;;4962809;28;20057;-90
2022/01/09 11:44:49;;;;;;;15.57;2.20;;;7.10;99.90;;;;;;4979135;28;20056;-91
2022/01/09 11:47:19;;;;;;;15.05;2.17;;;7.00;99.90;;;;;;4962373;28;20121;-89
2022/01/09 11:49:54;;;;;;;13.13;2.37;;;7.30;99.90;;;;;;4978873;28;20054;-90
2022/01/09 11:52:30;;;;;;;22.73;2.13;;;7.60;99.90;;;;;;4994492;28;20535;-91
2022/01/09 11:55:01;;;;;;;10.75;2.20;;;7.70;99.90;;;;;;4962676;28;20085;-90
2022/01/09 11:57:48;;;;;;;13.27;2.40;;;8.10;99.90;;;;;;4978525;28;20090;-90
2022/01/09 12:00:53;;;;;;;14.93;2.20;;;8.70;99.90;;;;;;4978797;28;20056;-91
2022/01/09 12:03:27;;;;;;;11.45;2.53;;;9.00;99.90;;;;;;4938892;29;20155;-90
2022/01/09 12:06:06;;;;;;;13.90;2.30;;;8.80;99.90;;;;;;4938898;29;20059;-90
2022/01/09 12:09:08;;;;;;;19.58;2.40;;;8.60;99.90;;;;;;4922969;29;20202;-90
2022/01/09 12:12:05;;;;;;;14.13;2.65;;;8.70;99.90;;;;;;4919929;29;20131;-90
2022/01/09 12:14:51;;;;;;;17.60;2.47;;;9.00;99.90;;;;;;4904175;29;20112;-90
2022/01/09 12:17:22;;;;;;;17.75;2.45;;;9.20;99.90;;;;;;4919476;29;20059;-90
2022/01/09 12:20:12;;;;;;;14.93;2.03;;;9.60;99.90;;;;;;4902770;29;20059;-90
2022/01/09 12:22:48;;;;;;;12.50;2.25;;;9.80;99.90;;;;;;4919591;29;20056;-89
2022/01/09 12:25:25;;;;;;;12.15;1.90;;;9.70;99.90;;;;;;4903823;29;20685;-90
2022/01/09 12:28:11;;;;;;;17.35;2.60;;;9.10;99.90;;;;;;4903583;29;20148;-89
2022/01/09 12:30:48;;;;;;;13.93;2.13;;;8.60;99.90;;;;;;4919528;29;20055;-89
2022/01/09 12:33:25;;;;;;;16.52;2.10;;;8.10;99.90;;;;;;4906039;29;20062;-90
2022/01/09 12:36:07;;;;;;;10.32;1.77;;;7.50;99.90;;;;;;4938532;29;20114;-90
2022/01/09 12:38:44;;;;;;;21.80;1.90;;;7.00;99.90;;;;;;4937800;29;20604;-90
2022/01/09 12:41:14;;;;;;;19.20;2.83;;;6.60;99.90;;;;;;4938222;29;20051;-88
2022/01/09 12:43:41;;;;;;;16.75;2.53;;;6.40;99.90;;;;;;4938217;29;20059;-91
2022/01/09 12:46:18;;;;;;;16.20;2.38;;;6.20;99.90;;;;;;4967128;28;20407;-90
2022/01/09 12:48:59;;;;;;;14.27;2.58;;;6.30;99.90;;;;;;4961431;28;20462;-90
2022/01/09 12:51:26;;;;;;;11.82;2.33;;;6.10;99.90;;;;;;4994013;28;20455;-91